EGUW

RAF Wattisham Airport

Stowmarket, United Kingdom
METAR EGUW 240750Z 04012KT CAVOK 16/11 Q1021 BLU NOSIG
Observed Flight Rules
May-24 @ 07:50 UTC (11 minutes ago) Visual Flight Rules
Wind Visibility Clouds
40° at 12 knots 10,000+ meters
  • Clear skies
Temperatures Readings
Current 16°C / 61°F
Dewpoint 11°C / 52°F
Humidity 72%
Altimeter 30.15" Hg
Pressure 1021 hPa
Elevation 87
METAR EGUW 240750Z 04012KT CAVOK 16/11 Q1021 BLU NOSIG
Observed Flight Rules
May-24 @ 07:50 UTC
(11 minutes ago)
VFR
Wind Visibility
40° at 12 knots 10,000+ meters
Clouds
  • Clear skies
Temperature Dewpoint
16°C / 61°F 11°C / 52°F
Humidity Altimeter Pressure
72% 30.15" Hg 1021 hPa